sensor_id;sensor_type;location;lat;lon;timestamp;pressure;altitude;pressure_sealevel;temperature;humidity
33414;BME280;60055;41.884;12.534;2023-04-26T00:01:16;100428.72;;;15.45;54.21
33414;BME280;60055;41.884;12.534;2023-04-26T00:03:41;100417.31;;;15.43;53.56
33414;BME280;60055;41.884;12.534;2023-04-26T00:06:07;100421.88;;;15.26;53.99
33414;BME280;60055;41.884;12.534;2023-04-26T00:08:38;100434.13;;;15.29;54.17
33414;BME280;60055;41.884;12.534;2023-04-26T00:11:03;100430.31;;;15.19;54.63
33414;BME280;60055;41.884;12.534;2023-04-26T00:13:29;100434.94;;;15.15;54.53
33414;BME280;60055;41.884;12.534;2023-04-26T00:15:54;100433.16;;;15.16;54.42
33414;BME280;60055;41.884;12.534;2023-04-26T00:18:20;100433.75;;;15.35;54.12
33414;BME280;60055;41.884;12.534;2023-04-26T00:20:45;100439.75;;;15.39;53.76
33414;BME280;60055;41.884;12.534;2023-04-26T00:23:11;100442.78;;;15.32;53.92
33414;BME280;60055;41.884;12.534;2023-04-26T00:25:36;100449.34;;;15.27;55.44
33414;BME280;60055;41.884;12.534;2023-04-26T00:28:02;100447.31;;;15.16;54.72
33414;BME280;60055;41.884;12.534;2023-04-26T00:30:28;100450.19;;;14.98;55.08
33414;BME280;60055;41.884;12.534;2023-04-26T00:32:53;100458.66;;;15.04;55.38
33414;BME280;60055;41.884;12.534;2023-04-26T00:35:19;100453.75;;;15.12;54.35
33414;BME280;60055;41.884;12.534;2023-04-26T00:37:45;100452.81;;;15.13;54.87
33414;BME280;60055;41.884;12.534;2023-04-26T00:40:11;100453.78;;;15.26;54.63
33414;BME280;60055;41.884;12.534;2023-04-26T00:42:39;100451.69;;;15.31;54.24
33414;BME280;60055;41.884;12.534;2023-04-26T00:45:06;100453.00;;;15.10;55.10
33414;BME280;60055;41.884;12.534;2023-04-26T00:47:32;100454.16;;;15.20;54.73
33414;BME280;60055;41.884;12.534;2023-04-26T00:49:58;100450.72;;;15.18;54.58
33414;BME280;60055;41.884;12.534;2023-04-26T00:52:25;100452.03;;;15.11;54.88
33414;BME280;60055;41.884;12.534;2023-04-26T00:54:52;100464.13;;;15.17;55.03
33414;BME280;60055;41.884;12.534;2023-04-26T00:57:17;100454.19;;;15.05;54.91
33414;BME280;60055;41.884;12.534;2023-04-26T00:59:43;100456.34;;;14.98;55.08
33414;BME280;60055;41.884;12.534;2023-04-26T01:02:08;100456.16;;;15.17;55.14
33414;BME280;60055;41.884;12.534;2023-04-26T01:04:34;100461.06;;;15.09;54.76
33414;BME280;60055;41.884;12.534;2023-04-26T01:07:01;100457.38;;;15.25;54.37
33414;BME280;60055;41.884;12.534;2023-04-26T01:09:29;100463.88;;;15.35;54.27
33414;BME280;60055;41.884;12.534;2023-04-26T01:11:55;100459.50;;;15.05;54.83
33414;BME280;60055;41.884;12.534;2023-04-26T01:14:23;100460.28;;;15.07;54.82
33414;BME280;60055;41.884;12.534;2023-04-26T01:16:48;100463.03;;;15.05;55.23
33414;BME280;60055;41.884;12.534;2023-04-26T01:19:14;100456.53;;;14.95;55.48
33414;BME280;60055;41.884;12.534;2023-04-26T01:21:41;100457.84;;;14.88;55.48
33414;BME280;60055;41.884;12.534;2023-04-26T01:24:11;100461.03;;;14.79;55.88
33414;BME280;60055;41.884;12.534;2023-04-26T01:26:39;100460.44;;;14.74;56.21
33414;BME280;60055;41.884;12.534;2023-04-26T01:29:17;100457.88;;;14.57;55.98
33414;BME280;60055;41.884;12.534;2023-04-26T01:31:43;100459.25;;;14.48;56.24
33414;BME280;60055;41.884;12.534;2023-04-26T01:34:08;100463.31;;;14.40;56.78
33414;BME280;60055;41.884;12.534;2023-04-26T01:36:34;100459.78;;;14.39;56.52
33414;BME280;60055;41.884;12.534;2023-04-26T01:38:59;100459.78;;;14.55;56.15
33414;BME280;60055;41.884;12.534;2023-04-26T01:41:25;100462.69;;;14.66;55.71
33414;BME280;60055;41.884;12.534;2023-04-26T01:43:50;100464.31;;;14.53;56.82
33414;BME280;60055;41.884;12.534;2023-04-26T01:46:16;100468.94;;;14.33;56.69
33414;BME280;60055;41.884;12.534;2023-04-26T01:48:41;100464.47;;;14.34;56.55
33414;BME280;60055;41.884;12.534;2023-04-26T01:51:07;100464.56;;;14.32;56.65
33414;BME280;60055;41.884;12.534;2023-04-26T01:53:32;100470.97;;;14.28;56.75
33414;BME280;60055;41.884;12.534;2023-04-26T01:56:01;100466.09;;;14.37;57.00
33414;BME280;60055;41.884;12.534;2023-04-26T01:58:28;100467.44;;;14.28;56.95
33414;BME280;60055;41.884;12.534;2023-04-26T02:00:53;100461.97;;;14.15;57.01
33414;BME280;60055;41.884;12.534;2023-04-26T02:03:18;100458.03;;;14.22;57.12
33414;BME280;60055;41.884;12.534;2023-04-26T02:05:44;100466.00;;;13.90;57.80
33414;BME280;60055;41.884;12.534;2023-04-26T02:08:09;100458.28;;;14.02;57.85
33414;BME280;60055;41.884;12.534;2023-04-26T02:10:35;100460.47;;;14.10;57.38
33414;BME280;60055;41.884;12.534;2023-04-26T02:13:01;100463.81;;;14.13;57.25
33414;BME280;60055;41.884;12.534;2023-04-26T02:15:26;100463.81;;;14.13;57.30
33414;BME280;60055;41.884;12.534;2023-04-26T02:17:51;100462.53;;;14.05;57.86
33414;BME280;60055;41.884;12.534;2023-04-26T02:20:18;100458.75;;;13.93;57.45
33414;BME280;60055;41.884;12.534;2023-04-26T02:22:43;100461.06;;;13.99;57.52
33414;BME280;60055;41.884;12.534;2023-04-26T02:25:09;100467.06;;;13.70;58.82
33414;BME280;60055;41.884;12.534;2023-04-26T02:27:35;100462.09;;;13.64;59.02
33414;BME280;60055;41.884;12.534;2023-04-26T02:30:01;100462.41;;;13.75;58.74
33414;BME280;60055;41.884;12.534;2023-04-26T02:32:26;100462.50;;;13.89;58.65
33414;BME280;60055;41.884;12.534;2023-04-26T02:34:51;100466.16;;;13.71;58.57
33414;BME280;60055;41.884;12.534;2023-04-26T02:37:17;100468.50;;;13.60;59.11
33414;BME280;60055;41.884;12.534;2023-04-26T02:39:42;100470.00;;;13.48;59.23
33414;BME280;60055;41.884;12.534;2023-04-26T02:42:10;100471.53;;;13.52;59.20
33414;BME280;60055;41.884;12.534;2023-04-26T02:44:36;100478.75;;;13.50;59.30
33414;BME280;60055;41.884;12.534;2023-04-26T02:47:03;100477.00;;;13.49;59.35
33414;BME280;60055;41.884;12.534;2023-04-26T02:49:29;100472.00;;;13.60;59.09
33414;BME280;60055;41.884;12.534;2023-04-26T02:51:55;100472.47;;;13.68;58.96
33414;BME280;60055;41.884;12.534;2023-04-26T02:54:20;100470.44;;;13.73;58.69
33414;BME280;60055;41.884;12.534;2023-04-26T02:56:46;100472.59;;;13.82;58.44
33414;BME280;60055;41.884;12.534;2023-04-26T02:59:12;100483.09;;;13.68;58.87
33414;BME280;60055;41.884;12.534;2023-04-26T03:01:37;100486.91;;;13.63;58.71
33414;BME280;60055;41.884;12.534;2023-04-26T03:04:03;100485.81;;;13.67;59.14
33414;BME280;60055;41.884;12.534;2023-04-26T03:06:28;100485.44;;;13.57;59.43
33414;BME280;60055;41.884;12.534;2023-04-26T03:08:54;100494.81;;;13.47;59.36
33414;BME280;60055;41.884;12.534;2023-04-26T03:11:19;100482.66;;;13.26;60.11
33414;BME280;60055;41.884;12.534;2023-04-26T03:13:44;100482.75;;;13.42;59.30
33414;BME280;60055;41.884;12.534;2023-04-26T03:16:10;100478.97;;;13.46;59.27
33414;BME280;60055;41.884;12.534;2023-04-26T03:18:36;100474.22;;;13.35;59.63
33414;BME280;60055;41.884;12.534;2023-04-26T03:21:01;100490.28;;;13.49;59.45
33414;BME280;60055;41.884;12.534;2023-04-26T03:23:27;100493.72;;;13.51;58.94
33414;BME280;60055;41.884;12.534;2023-04-26T03:25:53;100488.81;;;13.44;59.44
33414;BME280;60055;41.884;12.534;2023-04-26T03:28:18;100490.38;;;13.13;60.26
33414;BME280;60055;41.884;12.534;2023-04-26T03:30:44;100496.44;;;13.15;60.25
33414;BME280;60055;41.884;12.534;2023-04-26T03:33:10;100504.06;;;13.04;60.63
33414;BME280;60055;41.884;12.534;2023-04-26T03:35:37;100509.84;;;13.12;60.20
33414;BME280;60055;41.884;12.534;2023-04-26T03:38:03;100517.16;;;13.07;60.39
33414;BME280;60055;41.884;12.534;2023-04-26T03:40:28;100515.25;;;13.11;60.27
33414;BME280;60055;41.884;12.534;2023-04-26T03:42:54;100521.75;;;13.04;60.78
33414;BME280;60055;41.884;12.534;2023-04-26T03:45:19;100524.31;;;13.05;60.81
33414;BME280;60055;41.884;12.534;2023-04-26T03:47:44;100526.88;;;13.25;60.13
33414;BME280;60055;41.884;12.534;2023-04-26T03:50:10;100521.25;;;13.31;60.33
33414;BME280;60055;41.884;12.534;2023-04-26T03:52:36;100517.66;;;13.32;60.06
33414;BME280;60055;41.884;12.534;2023-04-26T03:55:01;100522.50;;;13.24;60.12
33414;BME280;60055;41.884;12.534;2023-04-26T03:57:27;100526.47;;;13.16;60.30
33414;BME280;60055;41.884;12.534;2023-04-26T03:59:52;100524.75;;;13.15;60.56
33414;BME280;60055;41.884;12.534;2023-04-26T04:02:18;100521.31;;;13.13;60.37
33414;BME280;60055;41.884;12.534;2023-04-26T04:04:43;100536.78;;;13.03;61.10
33414;BME280;60055;41.884;12.534;2023-04-26T04:07:09;100534.66;;;12.93;61.36
33414;BME280;60055;41.884;12.534;2023-04-26T04:09:34;100538.56;;;13.21;60.35
33414;BME280;60055;41.884;12.534;2023-04-26T04:12:00;100542.56;;;13.30;60.76
33414;BME280;60055;41.884;12.534;2023-04-26T04:14:25;100538.53;;;13.04;60.90
33414;BME280;60055;41.884;12.534;2023-04-26T04:16:50;100538.94;;;12.95;60.81
33414;BME280;60055;41.884;12.534;2023-04-26T04:19:16;100551.06;;;12.82;61.23
33414;BME280;60055;41.884;12.534;2023-04-26T04:21:41;100552.38;;;12.73;61.45
33414;BME280;60055;41.884;12.534;2023-04-26T04:24:07;100545.59;;;13.04;60.39
33414;BME280;60055;41.884;12.534;2023-04-26T04:26:33;100544.97;;;12.99;60.57
33414;BME280;60055;41.884;12.534;2023-04-26T04:28:58;100549.91;;;13.06;60.62
33414;BME280;60055;41.884;12.534;2023-04-26T04:31:33;100549.16;;;13.21;60.08
33414;BME280;60055;41.884;12.534;2023-04-26T04:33:59;100561.72;;;13.18;59.47
33414;BME280;60055;41.884;12.534;2023-04-26T04:36:24;100564.63;;;13.30;59.31
33414;BME280;60055;41.884;12.534;2023-04-26T04:38:50;100571.16;;;13.23;59.48
33414;BME280;60055;41.884;12.534;2023-04-26T04:41:17;100571.25;;;13.03;59.85
33414;BME280;60055;41.884;12.534;2023-04-26T04:43:44;100576.13;;;13.12;59.89
33414;BME280;60055;41.884;12.534;2023-04-26T04:46:10;100581.28;;;13.15;59.87
33414;BME280;60055;41.884;12.534;2023-04-26T04:48:36;100585.97;;;13.10;60.09
33414;BME280;60055;41.884;12.534;2023-04-26T04:51:03;100581.34;;;12.95;60.54
33414;BME280;60055;41.884;12.534;2023-04-26T04:53:28;100585.22;;;13.07;60.32
33414;BME280;60055;41.884;12.534;2023-04-26T04:55:54;100586.06;;;13.26;59.81
33414;BME280;60055;41.884;12.534;2023-04-26T04:58:20;100592.56;;;13.38;58.83
33414;BME280;60055;41.884;12.534;2023-04-26T05:00:46;100601.00;;;13.80;58.27
33414;BME280;60055;41.884;12.534;2023-04-26T05:03:13;100594.81;;;14.14;57.38
33414;BME280;60055;41.884;12.534;2023-04-26T05:05:38;100604.13;;;14.55;56.07
33414;BME280;60055;41.884;12.534;2023-04-26T05:08:03;100603.19;;;14.72;55.34
33414;BME280;60055;41.884;12.534;2023-04-26T05:10:31;100609.19;;;15.22;54.04
33414;BME280;60055;41.884;12.534;2023-04-26T05:12:57;100604.97;;;15.50;53.20
33414;BME280;60055;41.884;12.534;2023-04-26T05:15:22;100612.16;;;15.63;52.50
33414;BME280;60055;41.884;12.534;2023-04-26T05:17:48;100615.59;;;16.09;51.75
33414;BME280;60055;41.884;12.534;2023-04-26T05:20:13;100623.81;;;16.20;50.67
33414;BME280;60055;41.884;12.534;2023-04-26T05:22:39;100621.75;;;16.25;50.38
33414;BME280;60055;41.884;12.534;2023-04-26T05:25:06;100630.66;;;16.53;49.63
33414;BME280;60055;41.884;12.534;2023-04-26T05:27:32;100624.16;;;16.58;48.96
33414;BME280;60055;41.884;12.534;2023-04-26T05:29:59;100634.13;;;16.55;49.41
33414;BME280;60055;41.884;12.534;2023-04-26T05:32:25;100635.50;;;16.62;48.52
33414;BME280;60055;41.884;12.534;2023-04-26T05:34:51;100631.44;;;16.97;47.59
33414;BME280;60055;41.884;12.534;2023-04-26T05:37:16;100634.19;;;16.53;48.37
33414;BME280;60055;41.884;12.534;2023-04-26T05:39:42;100635.91;;;16.97;47.57
33414;BME280;60055;41.884;12.534;2023-04-26T05:42:08;100636.28;;;17.05;46.89
33414;BME280;60055;41.884;12.534;2023-04-26T05:44:33;100644.53;;;17.28;46.13
33414;BME280;60055;41.884;12.534;2023-04-26T05:47:00;100648.50;;;17.35;45.43
33414;BME280;60055;41.884;12.534;2023-04-26T05:49:25;100638.53;;;17.52;45.50
33414;BME280;60055;41.884;12.534;2023-04-26T05:51:51;100647.25;;;17.41;45.64
33414;BME280;60055;41.884;12.534;2023-04-26T05:54:16;100652.31;;;17.72;44.43
33414;BME280;60055;41.884;12.534;2023-04-26T05:56:42;100645.63;;;17.38;44.89
33414;BME280;60055;41.884;12.534;2023-04-26T05:59:07;100656.88;;;17.44;44.95
33414;BME280;60055;41.884;12.534;2023-04-26T06:01:33;100651.66;;;17.69;44.48
33414;BME280;60055;41.884;12.534;2023-04-26T06:03:58;100660.25;;;17.33;44.80
33414;BME280;60055;41.884;12.534;2023-04-26T06:06:25;100654.28;;;17.56;44.87
33414;BME280;60055;41.884;12.534;2023-04-26T06:08:52;100648.03;;;18.22;43.57
33414;BME280;60055;41.884;12.534;2023-04-26T06:11:17;100657.88;;;18.21;43.69
33414;BME280;60055;41.884;12.534;2023-04-26T06:13:43;100652.06;;;18.02;43.14
33414;BME280;60055;41.884;12.534;2023-04-26T06:16:09;100658.56;;;18.50;42.55
33414;BME280;60055;41.884;12.534;2023-04-26T06:18:34;100655.94;;;18.49;42.25
33414;BME280;60055;41.884;12.534;2023-04-26T06:21:00;100653.72;;;18.30;43.20
33414;BME280;60055;41.884;12.534;2023-04-26T06:23:25;100664.16;;;18.08;42.17
33414;BME280;60055;41.884;12.534;2023-04-26T06:25:51;100662.75;;;17.22;44.16
33414;BME280;60055;41.884;12.534;2023-04-26T06:28:16;100664.31;;;17.92;44.06
33414;BME280;60055;41.884;12.534;2023-04-26T06:30:42;100668.56;;;18.21;42.96
33414;BME280;60055;41.884;12.534;2023-04-26T06:33:07;100669.69;;;18.05;42.14
33414;BME280;60055;41.884;12.534;2023-04-26T06:35:38;100672.06;;;17.70;42.34
33414;BME280;60055;41.884;12.534;2023-04-26T06:38:04;100671.19;;;17.57;41.81
33414;BME280;60055;41.884;12.534;2023-04-26T06:40:30;100678.47;;;17.94;41.73
33414;BME280;60055;41.884;12.534;2023-04-26T06:42:55;100685.06;;;18.41;40.64
33414;BME280;60055;41.884;12.534;2023-04-26T06:45:21;100684.97;;;18.67;39.07
33414;BME280;60055;41.884;12.534;2023-04-26T06:47:47;100681.28;;;19.19;38.44
33414;BME280;60055;41.884;12.534;2023-04-26T06:50:15;100685.09;;;19.64;37.90
33414;BME280;60055;41.884;12.534;2023-04-26T06:52:40;100681.00;;;19.47;37.01
33414;BME280;60055;41.884;12.534;2023-04-26T06:55:06;100680.69;;;19.39;38.06
33414;BME280;60055;41.884;12.534;2023-04-26T06:57:31;100690.00;;;18.59;38.53
33414;BME280;60055;41.884;12.534;2023-04-26T06:59:57;100687.38;;;18.32;39.01
33414;BME280;60055;41.884;12.534;2023-04-26T07:02:22;100692.41;;;18.24;39.76
33414;BME280;60055;41.884;12.534;2023-04-26T07:04:48;100686.16;;;18.63;38.48
33414;BME280;60055;41.884;12.534;2023-04-26T07:07:14;100687.84;;;19.38;38.37
33414;BME280;60055;41.884;12.534;2023-04-26T07:09:40;100689.88;;;19.95;36.38
33414;BME280;60055;41.884;12.534;2023-04-26T07:12:06;100685.50;;;18.98;37.24
33414;BME280;60055;41.884;12.534;2023-04-26T07:14:31;100687.34;;;18.72;37.69
33414;BME280;60055;41.884;12.534;2023-04-26T07:16:57;100684.28;;;19.14;37.67
33414;BME280;60055;41.884;12.534;2023-04-26T07:19:22;100689.09;;;19.82;36.07
33414;BME280;60055;41.884;12.534;2023-04-26T07:21:48;100694.94;;;20.46;33.87
33414;BME280;60055;41.884;12.534;2023-04-26T07:24:13;100697.47;;;19.77;34.05
33414;BME280;60055;41.884;12.534;2023-04-26T07:26:38;100706.44;;;20.48;33.07
33414;BME280;60055;41.884;12.534;2023-04-26T07:29:05;100701.41;;;20.43;33.20
33414;BME280;60055;41.884;12.534;2023-04-26T07:31:30;100691.59;;;20.99;32.49
33414;BME280;60055;41.884;12.534;2023-04-26T07:33:56;100698.06;;;21.08;33.40
33414;BME280;60055;41.884;12.534;2023-04-26T07:36:22;100703.03;;;20.79;33.47
33414;BME280;60055;41.884;12.534;2023-04-26T07:38:47;100698.31;;;19.67;36.26
33414;BME280;60055;41.884;12.534;2023-04-26T07:41:12;100709.22;;;19.64;35.95
33414;BME280;60055;41.884;12.534;2023-04-26T07:43:40;100713.50;;;20.49;35.16
33414;BME280;60055;41.884;12.534;2023-04-26T07:46:06;100712.59;;;21.27;34.12
33414;BME280;60055;41.884;12.534;2023-04-26T07:48:31;100710.41;;;21.10;33.78
33414;BME280;60055;41.884;12.534;2023-04-26T07:51:06;100719.34;;;20.19;35.29
33414;BME280;60055;41.884;12.534;2023-04-26T07:53:31;100724.53;;;20.90;35.04
33414;BME280;60055;41.884;12.534;2023-04-26T07:55:57;100726.97;;;20.71;34.23
33414;BME280;60055;41.884;12.534;2023-04-26T07:58:22;100724.91;;;21.08;34.54
33414;BME280;60055;41.884;12.534;2023-04-26T08:00:48;100720.25;;;21.54;33.40
33414;BME280;60055;41.884;12.534;2023-04-26T08:03:14;100729.97;;;22.00;32.41
33414;BME280;60055;41.884;12.534;2023-04-26T08:05:41;100730.38;;;22.16;32.03
33414;BME280;60055;41.884;12.534;2023-04-26T08:08:06;100749.41;;;22.45;31.48
33414;BME280;60055;41.884;12.534;2023-04-26T08:10:31;100746.94;;;22.53;30.71
33414;BME280;60055;41.884;12.534;2023-04-26T08:12:57;100746.13;;;22.41;30.10
33414;BME280;60055;41.884;12.534;2023-04-26T08:15:27;100743.47;;;22.09;30.29
33414;BME280;60055;41.884;12.534;2023-04-26T08:17:52;100734.41;;;21.67;31.50
33414;BME280;60055;41.884;12.534;2023-04-26T08:20:18;100745.19;;;21.45;32.07
33414;BME280;60055;41.884;12.534;2023-04-26T08:22:43;100748.34;;;20.37;33.55
33414;BME280;60055;41.884;12.534;2023-04-26T08:25:09;100742.75;;;21.09;32.08
33414;BME280;60055;41.884;12.534;2023-04-26T08:27:34;100748.59;;;21.69;32.11
33414;BME280;60055;41.884;12.534;2023-04-26T08:30:01;100747.63;;;21.59;31.73
33414;BME280;60055;41.884;12.534;2023-04-26T08:32:26;100755.00;;;22.32;30.82
33414;BME280;60055;41.884;12.534;2023-04-26T08:34:52;100760.47;;;21.56;30.24
33414;BME280;60055;41.884;12.534;2023-04-26T08:37:17;100759.19;;;22.25;30.45
33414;BME280;60055;41.884;12.534;2023-04-26T08:39:42;100761.06;;;21.59;29.94
33414;BME280;60055;41.884;12.534;2023-04-26T08:42:15;100758.41;;;20.69;31.94
33414;BME280;60055;41.884;12.534;2023-04-26T08:44:42;100760.06;;;21.71;31.58
33414;BME280;60055;41.884;12.534;2023-04-26T08:47:21;100765.13;;;21.43;30.23
33414;BME280;60055;41.884;12.534;2023-04-26T08:49:58;100767.22;;;20.82;31.17
33414;BME280;60055;41.884;12.534;2023-04-26T08:52:27;100770.09;;;20.57;31.29
33414;BME280;60055;41.884;12.534;2023-04-26T08:54:53;100770.69;;;21.06;30.54
33414;BME280;60055;41.884;12.534;2023-04-26T08:57:21;100765.91;;;21.76;30.64
33414;BME280;60055;41.884;12.534;2023-04-26T08:59:48;100767.78;;;21.54;29.64
33414;BME280;60055;41.884;12.534;2023-04-26T09:02:17;100766.66;;;22.21;28.55
33414;BME280;60055;41.884;12.534;2023-04-26T09:04:44;100760.72;;;22.38;28.37
33414;BME280;60055;41.884;12.534;2023-04-26T09:07:17;100769.81;;;22.79;28.58
33414;BME280;60055;41.884;12.534;2023-04-26T09:09:46;100775.84;;;22.92;28.01
33414;BME280;60055;41.884;12.534;2023-04-26T09:12:13;100777.66;;;23.12;27.71
33414;BME280;60055;41.884;12.534;2023-04-26T09:14:40;100775.34;;;23.28;26.77
33414;BME280;60055;41.884;12.534;2023-04-26T09:17:26;100766.59;;;23.15;27.02
33414;BME280;60055;41.884;12.534;2023-04-26T09:19:51;100768.81;;;23.01;27.02
33414;BME280;60055;41.884;12.534;2023-04-26T09:24:56;100760.78;;;22.48;28.49
33414;BME280;60055;41.884;12.534;2023-04-26T09:27:31;100763.41;;;22.70;27.38
33414;BME280;60055;41.884;12.534;2023-04-26T09:32:23;100761.38;;;23.14;25.01
33414;BME280;60055;41.884;12.534;2023-04-26T09:34:49;100759.53;;;23.14;25.13
33414;BME280;60055;41.884;12.534;2023-04-26T09:37:15;100771.69;;;23.09;25.69
33414;BME280;60055;41.884;12.534;2023-04-26T09:39:41;100763.66;;;22.88;24.74
33414;BME280;60055;41.884;12.534;2023-04-26T09:42:07;100753.44;;;22.91;24.52
33414;BME280;60055;41.884;12.534;2023-04-26T09:44:33;100750.13;;;23.09;23.42
33414;BME280;60055;41.884;12.534;2023-04-26T09:47:06;100754.56;;;22.68;23.76
33414;BME280;60055;41.884;12.534;2023-04-26T09:49:46;100758.41;;;22.55;23.90
33414;BME280;60055;41.884;12.534;2023-04-26T09:52:13;100766.00;;;22.61;23.58
33414;BME280;60055;41.884;12.534;2023-04-26T09:55:00;100753.78;;;22.57;22.94
33414;BME280;60055;41.884;12.534;2023-04-26T09:57:26;100746.78;;;22.13;23.69
33414;BME280;60055;41.884;12.534;2023-04-26T09:59:52;100748.50;;;22.34;23.75
33414;BME280;60055;41.884;12.534;2023-04-26T10:02:23;100758.63;;;22.63;23.46
33414;BME280;60055;41.884;12.534;2023-04-26T10:04:51;100755.38;;;22.80;22.96
33414;BME280;60055;41.884;12.534;2023-04-26T10:07:19;100752.03;;;22.87;23.05
33414;BME280;60055;41.884;12.534;2023-04-26T10:09:45;100747.63;;;22.86;22.77
33414;BME280;60055;41.884;12.534;2023-04-26T10:12:13;100752.13;;;22.65;23.15
33414;BME280;60055;41.884;12.534;2023-04-26T10:14:41;100752.28;;;22.84;23.06
33414;BME280;60055;41.884;12.534;2023-04-26T10:17:06;100744.13;;;22.75;22.72
33414;BME280;60055;41.884;12.534;2023-04-26T10:19:35;100735.56;;;22.81;22.15
33414;BME280;60055;41.884;12.534;2023-04-26T10:22:07;100741.63;;;22.62;23.50
33414;BME280;60055;41.884;12.534;2023-04-26T10:24:34;100734.78;;;22.37;22.97
33414;BME280;60055;41.884;12.534;2023-04-26T10:27:01;100734.72;;;22.49;23.71
33414;BME280;60055;41.884;12.534;2023-04-26T10:32:20;100742.72;;;22.39;22.79
33414;BME280;60055;41.884;12.534;2023-04-26T10:35:27;100737.47;;;22.37;23.35
33414;BME280;60055;41.884;12.534;2023-04-26T10:40:27;100728.38;;;22.50;24.32
33414;BME280;60055;41.884;12.534;2023-04-26T10:45:43;100722.78;;;22.41;24.19
33414;BME280;60055;41.884;12.534;2023-04-26T10:59:13;100718.78;;;22.04;22.09
33414;BME280;60055;41.884;12.534;2023-04-26T11:01:39;100717.00;;;21.94;22.56
33414;BME280;60055;41.884;12.534;2023-04-26T11:04:11;100717.38;;;22.00;22.97
33414;BME280;60055;41.884;12.534;2023-04-26T11:11:59;100718.72;;;21.95;22.49
33414;BME280;60055;41.884;12.534;2023-04-26T11:14:25;100723.72;;;21.88;21.51
33414;BME280;60055;41.884;12.534;2023-04-26T11:16:50;100724.44;;;22.01;22.23
33414;BME280;60055;41.884;12.534;2023-04-26T11:19:16;100714.91;;;22.29;21.16
33414;BME280;60055;41.884;12.534;2023-04-26T11:21:41;100718.59;;;21.96;21.21
33414;BME280;60055;41.884;12.534;2023-04-26T11:24:06;100714.19;;;21.95;20.41
33414;BME280;60055;41.884;12.534;2023-04-26T11:26:32;100710.38;;;21.98;20.52
33414;BME280;60055;41.884;12.534;2023-04-26T11:29:01;100714.72;;;21.78;20.48
33414;BME280;60055;41.884;12.534;2023-04-26T11:31:29;100711.50;;;21.84;20.30
33414;BME280;60055;41.884;12.534;2023-04-26T11:34:02;100703.94;;;21.89;20.11
33414;BME280;60055;41.884;12.534;2023-04-26T11:36:27;100697.47;;;21.92;18.08
33414;BME280;60055;41.884;12.534;2023-04-26T11:38:54;100704.84;;;22.10;18.15
33414;BME280;60055;41.884;12.534;2023-04-26T11:41:21;100696.94;;;22.29;17.46
33414;BME280;60055;41.884;12.534;2023-04-26T11:43:48;100709.72;;;22.16;17.45
33414;BME280;60055;41.884;12.534;2023-04-26T11:46:13;100711.34;;;22.28;18.55
33414;BME280;60055;41.884;12.534;2023-04-26T11:48:38;100701.91;;;22.55;18.14
33414;BME280;60055;41.884;12.534;2023-04-26T11:51:05;100703.16;;;22.71;18.54
33414;BME280;60055;41.884;12.534;2023-04-26T11:53:41;100702.44;;;22.90;18.60
33414;BME280;60055;41.884;12.534;2023-04-26T11:58:43;100705.19;;;22.79;17.86
33414;BME280;60055;41.884;12.534;2023-04-26T12:01:08;100694.97;;;22.73;17.89
33414;BME280;60055;41.884;12.534;2023-04-26T12:03:34;100709.06;;;22.86;17.73
33414;BME280;60055;41.884;12.534;2023-04-26T12:06:02;100701.91;;;22.75;18.33
33414;BME280;60055;41.884;12.534;2023-04-26T12:08:28;100708.19;;;22.65;18.21
33414;BME280;60055;41.884;12.534;2023-04-26T12:10:58;100708.28;;;22.54;18.17
33414;BME280;60055;41.884;12.534;2023-04-26T12:13:25;100704.84;;;22.93;18.79
33414;BME280;60055;41.884;12.534;2023-04-26T12:15:51;100708.19;;;22.65;17.28
33414;BME280;60055;41.884;12.534;2023-04-26T12:18:16;100702.69;;;22.87;16.79
33414;BME280;60055;41.884;12.534;2023-04-26T12:20:43;100705.97;;;22.90;18.27
33414;BME280;60055;41.884;12.534;2023-04-26T12:23:09;100714.09;;;23.00;16.87
33414;BME280;60055;41.884;12.534;2023-04-26T12:25:36;100706.50;;;23.15;17.70
33414;BME280;60055;41.884;12.534;2023-04-26T12:28:08;100714.84;;;23.12;26.75
33414;BME280;60055;41.884;12.534;2023-04-26T12:30:37;100721.88;;;23.33;29.78
33414;BME280;60055;41.884;12.534;2023-04-26T12:33:03;100707.59;;;23.42;31.47
33414;BME280;60055;41.884;12.534;2023-04-26T12:35:29;100713.63;;;23.25;33.47
33414;BME280;60055;41.884;12.534;2023-04-26T12:37:55;100719.78;;;23.07;34.00
33414;BME280;60055;41.884;12.534;2023-04-26T12:40:22;100725.56;;;22.72;35.57
33414;BME280;60055;41.884;12.534;2023-04-26T12:42:48;100728.50;;;22.69;35.66
33414;BME280;60055;41.884;12.534;2023-04-26T12:45:14;100722.22;;;23.10;34.83
33414;BME280;60055;41.884;12.534;2023-04-26T12:47:39;100720.50;;;23.09;35.24
33414;BME280;60055;41.884;12.534;2023-04-26T12:50:05;100709.78;;;23.18;34.77
33414;BME280;60055;41.884;12.534;2023-04-26T12:52:31;100721.28;;;23.20;34.26
33414;BME280;60055;41.884;12.534;2023-04-26T12:54:57;100718.47;;;23.31;34.32
33414;BME280;60055;41.884;12.534;2023-04-26T12:57:23;100720.56;;;23.18;34.34
33414;BME280;60055;41.884;12.534;2023-04-26T12:59:48;100720.28;;;22.29;35.56
33414;BME280;60055;41.884;12.534;2023-04-26T13:02:13;100721.78;;;22.74;34.18
33414;BME280;60055;41.884;12.534;2023-04-26T13:04:39;100725.53;;;22.92;33.12
33414;BME280;60055;41.884;12.534;2023-04-26T13:07:04;100730.28;;;23.10;33.13
33414;BME280;60055;41.884;12.534;2023-04-26T13:09:30;100720.50;;;23.09;32.79